createdAt,value
2018-03-21T00:02:07.725Z,10.33
2018-03-21T00:04:35.152Z,10.87
2018-03-21T00:07:02.602Z,10.60
2018-03-21T00:09:30.020Z,11.20
2018-03-21T00:11:57.464Z,11.00
2018-03-21T00:14:24.923Z,11.20
2018-03-21T00:16:52.344Z,10.20
2018-03-21T00:19:19.796Z,11.63
2018-03-21T00:21:47.972Z,11.17
2018-03-21T00:24:15.407Z,12.10
2018-03-21T00:26:42.836Z,10.30
2018-03-21T00:29:10.272Z,10.67
2018-03-21T00:31:37.722Z,10.10
2018-03-21T00:34:05.164Z,9.70
2018-03-21T00:36:32.580Z,9.67
2018-03-21T00:39:00.784Z,9.43
2018-03-21T00:41:28.212Z,9.00
2018-03-21T00:43:55.663Z,9.57
2018-03-21T00:46:23.089Z,9.30
2018-03-21T00:48:50.513Z,8.23
2018-03-21T00:51:18.713Z,7.83
2018-03-21T00:53:46.135Z,8.23
2018-03-21T00:56:13.561Z,8.47
2018-03-21T00:58:41.758Z,7.93
2018-03-21T01:01:09.344Z,7.60
2018-03-21T01:03:36.764Z,7.57
2018-03-21T01:06:04.183Z,7.33
2018-03-21T01:08:31.657Z,7.57
2018-03-21T01:10:59.052Z,6.83
2018-03-21T01:13:26.504Z,7.63
2018-03-21T01:15:53.934Z,7.83
2018-03-21T01:18:21.380Z,7.70
2018-03-21T01:20:48.789Z,6.70
2018-03-21T01:23:17.003Z,7.30
2018-03-21T01:25:44.446Z,6.73
2018-03-21T01:28:11.869Z,6.63
2018-03-21T01:30:39.323Z,7.43
2018-03-21T01:33:06.780Z,7.93
2018-03-21T01:35:34.228Z,7.03
2018-03-21T01:38:01.657Z,7.30
2018-03-21T01:40:29.094Z,8.13
2018-03-21T01:42:56.532Z,7.83
2018-03-21T01:45:23.992Z,7.63
2018-03-21T01:47:51.412Z,7.97
2018-03-21T01:50:18.835Z,7.00
2018-03-21T01:52:46.296Z,7.10
2018-03-21T01:55:13.731Z,6.40
2018-03-21T01:57:41.191Z,6.83
2018-03-21T02:00:08.612Z,7.63
2018-03-21T02:02:36.044Z,6.60
2018-03-21T02:05:03.489Z,6.60
2018-03-21T02:07:30.901Z,6.43
2018-03-21T02:09:59.102Z,7.00
2018-03-21T02:12:26.537Z,7.07
2018-03-21T02:14:53.947Z,7.97
2018-03-21T02:17:21.384Z,8.07
2018-03-21T02:19:48.824Z,7.97
2018-03-21T02:22:17.044Z,8.70
2018-03-21T02:24:44.486Z,8.07
2018-03-21T02:27:11.939Z,7.13
2018-03-21T02:29:39.468Z,7.20
2018-03-21T02:32:06.896Z,6.93
2018-03-21T02:34:34.351Z,7.60
2018-03-21T02:37:01.763Z,7.20
2018-03-21T02:39:29.224Z,8.10
2018-03-21T02:41:56.668Z,7.50
2018-03-21T02:44:24.116Z,7.87
2018-03-21T02:46:51.544Z,7.17
2018-03-21T02:49:18.971Z,7.47
2018-03-21T02:51:46.405Z,8.00
2018-03-21T02:54:13.845Z,7.47
2018-03-21T02:56:42.030Z,7.00
2018-03-21T02:59:09.477Z,8.50
2018-03-21T03:01:36.936Z,7.70
2018-03-21T03:04:04.356Z,7.87
2018-03-21T03:06:31.817Z,8.17
2018-03-21T03:08:59.232Z,7.97
2018-03-21T03:11:26.669Z,9.40
2018-03-21T03:13:54.107Z,8.23
2018-03-21T03:16:21.556Z,8.97
2018-03-21T03:18:48.987Z,8.77
2018-03-21T03:21:16.411Z,8.57
2018-03-21T03:23:43.848Z,8.70
2018-03-21T03:26:11.300Z,8.43
2018-03-21T03:28:38.762Z,8.13
2018-03-21T03:31:06.193Z,8.37
2018-03-21T03:33:33.674Z,8.20
2018-03-21T03:36:01.110Z,8.27
2018-03-21T03:38:28.540Z,9.07
2018-03-21T03:40:55.963Z,9.97
2018-03-21T03:43:23.430Z,11.17
2018-03-21T03:45:50.843Z,10.27
2018-03-21T03:48:18.271Z,9.00
2018-03-21T03:50:45.896Z,9.00
2018-03-21T03:53:14.116Z,8.63
2018-03-21T03:55:41.556Z,8.63
2018-03-21T03:58:08.992Z,8.67
2018-03-21T04:00:36.425Z,9.23
2018-03-21T04:03:03.884Z,9.43
2018-03-21T04:05:31.315Z,9.03
2018-03-21T04:07:58.740Z,8.37
2018-03-21T04:10:26.204Z,8.80
2018-03-21T04:12:53.656Z,9.40
2018-03-21T04:15:21.098Z,9.97
2018-03-21T04:17:48.548Z,9.10
2018-03-21T04:20:16.028Z,8.03
2018-03-21T04:22:43.478Z,8.50
2018-03-21T04:25:10.907Z,8.23
2018-03-21T04:27:39.112Z,9.17
2018-03-21T04:30:06.582Z,8.93
2018-03-21T04:32:34.034Z,9.90
2018-03-21T04:35:01.445Z,8.87
2018-03-21T04:37:28.885Z,9.87
2018-03-21T04:39:56.320Z,10.60
2018-03-21T04:42:23.776Z,10.63
2018-03-21T04:44:51.232Z,9.90
2018-03-21T04:47:18.682Z,10.87
2018-03-21T04:49:46.100Z,11.03
2018-03-21T04:52:13.844Z,11.13
2018-03-21T04:54:41.275Z,10.50
2018-03-21T04:57:08.735Z,11.23
2018-03-21T04:59:36.205Z,10.17
2018-03-21T05:02:03.648Z,10.27
2018-03-21T05:04:31.855Z,11.53
2018-03-21T05:06:59.306Z,11.17
2018-03-21T05:09:26.731Z,12.07
2018-03-21T05:11:54.164Z,12.07
2018-03-21T05:14:21.611Z,13.07
2018-03-21T05:16:49.068Z,13.20
2018-03-21T05:19:16.472Z,12.83
2018-03-21T05:21:43.919Z,11.73
2018-03-21T05:24:13.065Z,13.23
2018-03-21T05:26:40.599Z,14.93
2018-03-21T05:29:08.024Z,14.27
2018-03-21T05:31:35.475Z,12.97
2018-03-21T05:34:02.891Z,14.17
2018-03-21T05:36:30.336Z,13.67
2018-03-21T05:38:57.768Z,12.77
2018-03-21T05:41:25.205Z,12.80
2018-03-21T05:43:52.642Z,12.23
2018-03-21T05:46:20.140Z,11.93
2018-03-21T05:48:47.570Z,11.13
2018-03-21T05:51:15.783Z,12.63
2018-03-21T05:53:43.235Z,12.70
2018-03-21T05:56:10.656Z,12.90
2018-03-21T05:58:38.089Z,11.80
2018-03-21T06:01:06.276Z,12.53
2018-03-21T06:03:33.716Z,12.00
2018-03-21T06:06:01.145Z,13.30
2018-03-21T06:08:28.579Z,13.90
2018-03-21T06:10:56.012Z,13.20
2018-03-21T06:13:24.212Z,13.47
2018-03-21T06:15:51.677Z,14.03
2018-03-21T06:18:19.084Z,12.90
2018-03-21T06:20:46.782Z,12.30
2018-03-21T06:23:14.971Z,12.53
2018-03-21T06:25:42.420Z,13.50
2018-03-21T06:28:09.892Z,14.17
2018-03-21T06:30:37.349Z,11.73
2018-03-21T06:33:04.783Z,13.73
2018-03-21T06:35:32.222Z,13.00
2018-03-21T06:37:59.715Z,11.73
2018-03-21T06:40:27.099Z,11.80
2018-03-21T06:42:54.536Z,11.60
2018-03-21T06:45:21.960Z,11.60
2018-03-21T06:47:49.408Z,11.60
2018-03-21T06:50:16.861Z,11.17
2018-03-21T06:52:44.301Z,11.13
2018-03-21T06:55:11.786Z,10.50
2018-03-21T06:57:39.188Z,10.70
2018-03-21T07:00:06.628Z,11.10
2018-03-21T07:02:34.127Z,11.37
2018-03-21T07:05:01.524Z,11.40
2018-03-21T07:07:28.980Z,12.17
2018-03-21T07:09:56.408Z,10.43
2018-03-21T07:12:23.853Z,11.03
2018-03-21T07:15:03.308Z,10.67
2018-03-21T07:17:31.565Z,11.97
2018-03-21T07:19:58.933Z,10.23
2018-03-21T07:22:26.352Z,9.20
2018-03-21T07:24:54.569Z,10.53
2018-03-21T07:27:21.998Z,10.03
2018-03-21T07:29:49.453Z,10.23
2018-03-21T07:32:16.884Z,10.60
2018-03-21T07:34:44.315Z,10.07
2018-03-21T07:37:11.770Z,9.37
2018-03-21T07:39:39.313Z,10.80
2018-03-21T07:42:06.716Z,10.37
2018-03-21T07:44:34.164Z,10.57
2018-03-21T07:47:01.586Z,10.03
2018-03-21T07:49:29.775Z,10.50
2018-03-21T07:51:57.200Z,9.83
2018-03-21T07:54:25.519Z,10.80
2018-03-21T07:56:52.962Z,9.87
2018-03-21T07:59:21.164Z,9.87
2018-03-21T08:01:48.596Z,10.27
2018-03-21T08:04:16.795Z,10.10
2018-03-21T08:06:44.251Z,8.97
2018-03-21T08:09:11.691Z,8.33
2018-03-21T08:11:39.128Z,8.83
2018-03-21T08:14:06.556Z,8.60
2018-03-21T08:16:33.968Z,8.57
2018-03-21T08:19:01.397Z,7.80
2018-03-21T08:21:29.600Z,8.27
2018-03-21T08:23:57.031Z,5.50
2018-03-21T08:26:24.489Z,5.73
2018-03-21T08:28:51.909Z,6.00
2018-03-21T08:31:19.348Z,5.73
2018-03-21T08:33:46.780Z,4.90
2018-03-21T08:36:14.986Z,5.70
2018-03-21T08:38:42.432Z,6.07
2018-03-21T08:41:09.862Z,6.17
2018-03-21T08:43:37.308Z,5.90
2018-03-21T08:46:04.735Z,5.37
2018-03-21T08:48:32.168Z,5.90
2018-03-21T08:50:59.588Z,6.70
2018-03-21T08:53:27.011Z,6.27
2018-03-21T08:55:55.225Z,5.97
2018-03-21T08:58:22.644Z,6.17
2018-03-21T09:00:50.096Z,6.23
2018-03-21T09:03:17.529Z,5.40
2018-03-21T09:05:44.942Z,5.10
2018-03-21T09:08:13.151Z,6.03
2018-03-21T09:10:40.583Z,5.83
2018-03-21T09:13:08.016Z,5.63
2018-03-21T09:15:35.484Z,6.23
2018-03-21T09:18:02.920Z,6.07
2018-03-21T09:20:30.401Z,6.30
2018-03-21T09:22:57.792Z,5.67
2018-03-21T09:25:25.220Z,5.40
2018-03-21T09:27:52.640Z,5.50
2018-03-21T09:30:20.059Z,5.23
2018-03-21T09:32:48.251Z,5.20
2018-03-21T09:35:15.684Z,5.60
2018-03-21T09:37:43.109Z,5.37
2018-03-21T09:40:11.308Z,4.97
2018-03-21T09:42:38.732Z,4.87
2018-03-21T09:45:06.158Z,4.77
2018-03-21T09:47:34.352Z,4.57
2018-03-21T09:50:01.785Z,4.93
2018-03-21T09:52:29.200Z,3.53
2018-03-21T09:54:57.385Z,3.97
2018-03-21T09:57:24.792Z,3.10
2018-03-21T09:59:53.000Z,3.80
2018-03-21T10:02:20.423Z,3.83
2018-03-21T10:04:47.853Z,3.60
2018-03-21T10:07:15.273Z,2.90
2018-03-21T10:09:43.484Z,3.50
2018-03-21T10:12:10.903Z,3.30
2018-03-21T10:14:38.345Z,3.17
2018-03-21T10:17:05.764Z,3.80
2018-03-21T10:19:33.180Z,3.93
2018-03-21T10:22:00.717Z,3.70
2018-03-21T10:24:28.167Z,4.07
2018-03-21T10:26:55.572Z,2.90
2018-03-21T10:29:23.008Z,3.60
2018-03-21T10:31:50.416Z,3.20
2018-03-21T10:34:18.608Z,3.07
2018-03-21T10:36:46.027Z,3.23
2018-03-21T10:39:13.444Z,2.70
2018-03-21T10:41:41.643Z,2.40
2018-03-21T10:44:09.065Z,2.53
2018-03-21T10:46:37.240Z,2.70
2018-03-21T10:49:04.664Z,2.47
2018-03-21T10:51:32.086Z,2.60
2018-03-21T10:54:00.259Z,2.67
2018-03-21T10:56:27.688Z,2.07
2018-03-21T10:58:55.868Z,2.37
2018-03-21T11:01:28.956Z,2.40
2018-03-21T11:03:56.380Z,2.73
2018-03-21T11:06:24.570Z,2.90
2018-03-21T11:08:51.991Z,2.70
2018-03-21T11:11:19.440Z,2.97
2018-03-21T11:13:46.857Z,3.13
2018-03-21T11:16:15.056Z,3.40
2018-03-21T11:18:42.487Z,3.30
2018-03-21T11:21:09.891Z,3.70
2018-03-21T11:23:38.072Z,3.30
2018-03-21T11:26:05.499Z,3.60
2018-03-21T11:28:33.684Z,3.50
2018-03-21T11:31:01.101Z,4.17
2018-03-21T11:33:28.523Z,3.60
2018-03-21T11:35:56.717Z,3.17
2018-03-21T11:38:24.140Z,3.50
2018-03-21T11:40:51.561Z,3.03
2018-03-21T11:43:18.976Z,3.10
2018-03-21T11:45:46.397Z,3.20
2018-03-21T11:48:13.828Z,3.57
2018-03-21T11:50:41.248Z,3.17
2018-03-21T11:53:08.668Z,3.10
2018-03-21T11:55:36.851Z,3.53
2018-03-21T11:58:04.264Z,3.70
2018-03-21T12:00:31.684Z,3.10
2018-03-21T12:02:59.096Z,3.33
2018-03-21T12:05:26.532Z,2.67
2018-03-21T12:07:53.960Z,3.20
2018-03-21T12:10:21.364Z,2.80
2018-03-21T12:12:48.804Z,3.10
2018-03-21T12:15:16.210Z,2.90
2018-03-21T12:17:43.632Z,2.87
2018-03-21T12:20:11.065Z,3.17
2018-03-21T12:22:38.489Z,2.80
2018-03-21T12:25:05.899Z,2.70
2018-03-21T12:27:33.324Z,2.30
2018-03-21T12:30:00.757Z,2.43
2018-03-21T12:32:28.192Z,2.50
2018-03-21T12:34:55.614Z,2.13
2018-03-21T12:37:23.023Z,2.40
2018-03-21T12:39:50.467Z,2.00
2018-03-21T12:42:17.883Z,2.30
2018-03-21T12:44:45.318Z,2.03
2018-03-21T12:47:12.736Z,1.97
2018-03-21T12:49:40.164Z,2.07
2018-03-21T12:52:07.595Z,2.03
2018-03-21T12:54:35.010Z,2.40
2018-03-21T12:57:02.427Z,2.17
2018-03-21T12:59:29.857Z,1.67
2018-03-21T13:01:57.300Z,1.90
2018-03-21T13:04:24.704Z,1.83
2018-03-21T13:06:52.153Z,2.10
2018-03-21T13:09:19.572Z,2.00
2018-03-21T13:11:47.772Z,1.80
2018-03-21T13:14:15.191Z,2.00
2018-03-21T13:16:42.624Z,2.10
2018-03-21T13:19:10.044Z,2.07
2018-03-21T13:21:38.232Z,1.80
2018-03-21T13:24:05.659Z,1.57
2018-03-21T13:26:33.869Z,1.70
2018-03-21T13:29:01.295Z,1.80
2018-03-21T13:31:28.720Z,2.03
2018-03-21T13:33:56.157Z,1.80
2018-03-21T13:36:24.323Z,1.73
2018-03-21T13:38:51.751Z,1.87
2018-03-21T13:41:19.923Z,2.00
2018-03-21T13:43:47.357Z,1.60
2018-03-21T13:46:15.557Z,1.57
2018-03-21T13:48:42.957Z,1.90
2018-03-21T13:51:10.388Z,1.63
2018-03-21T13:53:37.808Z,1.57
2018-03-21T13:56:05.232Z,1.30
2018-03-21T13:58:32.652Z,1.60
2018-03-21T14:01:00.088Z,1.67
2018-03-21T14:03:27.512Z,1.80
2018-03-21T14:05:54.953Z,2.00
2018-03-21T14:08:22.367Z,1.80
2018-03-21T14:10:50.556Z,1.60
2018-03-21T14:13:17.984Z,1.40
2018-03-21T14:15:45.430Z,1.30
2018-03-21T14:18:13.591Z,1.70
2018-03-21T14:20:41.040Z,1.50
2018-03-21T14:23:08.475Z,1.40
2018-03-21T14:25:35.908Z,1.90
2018-03-21T14:28:03.337Z,1.90
2018-03-21T14:30:31.524Z,1.73
2018-03-21T14:32:58.951Z,1.90
2018-03-21T14:35:26.375Z,1.80
2018-03-21T14:37:54.566Z,1.60
2018-03-21T14:40:21.971Z,1.70
2018-03-21T14:42:50.172Z,1.60
2018-03-21T14:45:17.603Z,2.00
2018-03-21T14:47:45.024Z,1.97
2018-03-21T14:50:13.225Z,1.50
2018-03-21T14:52:40.664Z,1.40
2018-03-21T14:55:08.072Z,1.50
2018-03-21T14:57:35.516Z,1.33
2018-03-21T15:00:03.008Z,1.50
2018-03-21T15:02:30.428Z,1.40
2018-03-21T15:04:57.874Z,1.30
2018-03-21T15:07:25.305Z,1.40
2018-03-21T15:09:52.732Z,2.13
2018-03-21T15:12:20.161Z,1.70
2018-03-21T15:14:47.577Z,1.37
2018-03-21T15:17:15.006Z,1.60
2018-03-21T15:19:42.424Z,1.50
2018-03-21T15:22:09.840Z,1.50
2018-03-21T15:24:37.268Z,1.50
2018-03-21T15:27:04.694Z,1.50
2018-03-21T15:29:32.893Z,1.30
2018-03-21T15:32:00.309Z,1.43
2018-03-21T15:34:27.724Z,1.43
2018-03-21T15:36:55.156Z,1.50
2018-03-21T15:39:22.596Z,1.10
2018-03-21T15:41:50.020Z,1.53
2018-03-21T15:44:17.458Z,1.30
2018-03-21T15:46:44.909Z,1.60
2018-03-21T15:49:12.333Z,1.30
2018-03-21T15:51:39.764Z,1.30
2018-03-21T15:54:07.288Z,1.57
2018-03-21T15:56:34.715Z,1.20
2018-03-21T15:59:02.899Z,1.50
2018-03-21T16:01:30.328Z,1.37
2018-03-21T16:03:57.816Z,1.37
2018-03-21T16:06:25.232Z,1.27
2018-03-21T16:08:52.645Z,1.23
2018-03-21T16:11:20.085Z,1.30
2018-03-21T16:13:48.276Z,1.10
2018-03-21T16:16:15.692Z,1.30
2018-03-21T16:18:43.184Z,1.00
2018-03-21T16:21:10.652Z,1.40
2018-03-21T16:23:38.051Z,1.20
2018-03-21T16:26:05.499Z,1.80
2018-03-21T16:28:32.916Z,5.60
2018-03-21T16:31:00.340Z,1.37
2018-03-21T16:33:27.776Z,1.20
2018-03-21T16:35:55.952Z,1.00
2018-03-21T16:38:23.388Z,1.40
2018-03-21T16:40:50.841Z,1.10
2018-03-21T16:43:18.264Z,1.03
2018-03-21T16:45:45.692Z,0.97
2018-03-21T16:48:13.872Z,1.10
2018-03-21T16:50:41.296Z,1.00
2018-03-21T16:53:09.508Z,0.90
2018-03-21T16:55:36.916Z,0.87
2018-03-21T16:58:04.344Z,1.00
2018-03-21T17:00:32.542Z,0.93
2018-03-21T17:02:59.945Z,1.00
2018-03-21T17:05:28.163Z,0.83
2018-03-21T17:07:55.588Z,1.20
2018-03-21T17:10:23.035Z,0.93
2018-03-21T17:12:50.426Z,0.90
2018-03-21T17:15:18.640Z,0.97
2018-03-21T17:17:46.057Z,1.00
2018-03-21T17:20:13.477Z,0.90
2018-03-21T17:22:40.904Z,1.37
2018-03-21T17:25:09.104Z,1.93
2018-03-21T17:27:36.528Z,1.77
2018-03-21T17:30:03.956Z,1.53
2018-03-21T17:32:32.176Z,1.37
2018-03-21T17:34:59.597Z,1.20
2018-03-21T17:37:27.019Z,1.70
2018-03-21T17:39:54.444Z,1.37
2018-03-21T17:42:21.896Z,1.43
2018-03-21T17:44:49.309Z,1.47
2018-03-21T17:47:17.520Z,1.37
2018-03-21T17:49:44.956Z,1.20
2018-03-21T17:52:12.425Z,1.17
2018-03-21T17:54:39.815Z,1.30
2018-03-21T17:57:07.249Z,1.40
2018-03-21T17:59:34.673Z,1.60
2018-03-21T18:02:02.096Z,1.47
2018-03-21T18:04:29.528Z,1.60
2018-03-21T18:06:56.960Z,1.10
2018-03-21T18:09:24.398Z,1.43
2018-03-21T18:11:51.841Z,1.37
2018-03-21T18:14:19.292Z,1.40
2018-03-21T18:16:46.721Z,1.40
2018-03-21T18:19:14.143Z,1.33
2018-03-21T18:21:41.581Z,1.60
2018-03-21T18:24:08.996Z,1.70
2018-03-21T18:26:37.205Z,2.13
2018-03-21T18:29:04.609Z,2.17
2018-03-21T18:31:32.106Z,1.77
2018-03-21T18:33:59.548Z,1.73
2018-03-21T18:36:26.996Z,2.07
2018-03-21T18:38:54.409Z,1.97
2018-03-21T18:41:21.851Z,2.13
2018-03-21T18:43:49.292Z,2.00
2018-03-21T18:46:16.740Z,1.47
2018-03-21T18:48:44.173Z,1.70
2018-03-21T18:51:11.612Z,1.57
2018-03-21T18:53:39.036Z,1.60
2018-03-21T18:56:06.452Z,4.60
2018-03-21T18:58:33.877Z,5.27
2018-03-21T19:01:02.078Z,3.83
2018-03-21T19:03:29.493Z,3.30
2018-03-21T19:05:57.684Z,2.70
2018-03-21T19:08:25.132Z,2.07
2018-03-21T19:10:52.561Z,2.10
2018-03-21T19:13:20.303Z,2.13
2018-03-21T19:15:48.166Z,1.83
2018-03-21T19:18:15.605Z,2.80
2018-03-21T19:20:43.027Z,2.57
2018-03-21T19:23:10.464Z,2.50
2018-03-21T19:25:37.915Z,3.70
2018-03-21T19:28:06.118Z,3.73
2018-03-21T19:30:33.574Z,2.27
2018-03-21T19:33:00.968Z,3.43
2018-03-21T19:35:28.412Z,2.80
2018-03-21T19:37:55.827Z,3.60
2018-03-21T19:40:24.045Z,2.70
2018-03-21T19:42:51.461Z,2.90
2018-03-21T19:45:18.896Z,3.57
2018-03-21T19:47:46.317Z,3.47
2018-03-21T19:50:14.512Z,3.40
2018-03-21T19:52:41.919Z,2.80
2018-03-21T19:55:09.360Z,3.57
2018-03-21T19:57:37.544Z,4.10
2018-03-21T20:00:04.984Z,3.60
2018-03-21T20:02:32.391Z,3.03
2018-03-21T20:05:00.584Z,4.07
2018-03-21T20:07:28.025Z,3.60
2018-03-21T20:09:55.427Z,4.13
2018-03-21T20:12:23.633Z,4.30
2018-03-21T20:14:51.068Z,4.80
2018-03-21T20:17:18.493Z,4.47
2018-03-21T20:19:45.921Z,5.20
2018-03-21T20:22:14.132Z,5.40
2018-03-21T20:24:41.596Z,6.07
2018-03-21T20:27:09.053Z,5.80
2018-03-21T20:29:36.460Z,5.10
2018-03-21T20:32:03.900Z,5.00
2018-03-21T20:34:31.355Z,4.43
2018-03-21T20:36:58.765Z,5.10
2018-03-21T20:39:26.216Z,4.73
2018-03-21T20:41:53.649Z,4.70
2018-03-21T20:44:21.089Z,5.27
2018-03-21T20:46:48.558Z,4.83
2018-03-21T20:49:15.991Z,5.27
2018-03-21T20:51:43.419Z,4.80
2018-03-21T20:54:10.836Z,4.63
2018-03-21T20:56:38.284Z,5.30
2018-03-21T20:59:05.717Z,5.30
2018-03-21T21:01:33.905Z,5.50
2018-03-21T21:04:01.325Z,4.83
2018-03-21T21:06:28.765Z,5.37
2018-03-21T21:08:56.187Z,6.07
2018-03-21T21:11:24.388Z,6.03
2018-03-21T21:13:51.824Z,6.77
2018-03-21T21:16:19.269Z,5.90
2018-03-21T21:18:46.713Z,5.83
2018-03-21T21:21:14.150Z,6.87
2018-03-21T21:23:41.580Z,6.20
2018-03-21T21:26:09.012Z,5.73
2018-03-21T21:28:36.434Z,5.90
2018-03-21T21:31:04.628Z,5.03
2018-03-21T21:33:32.074Z,6.20
2018-03-21T21:35:59.510Z,7.37
2018-03-21T21:38:26.921Z,7.20
2018-03-21T21:40:55.132Z,6.57
2018-03-21T21:43:22.576Z,6.73
2018-03-21T21:45:50.025Z,6.60
2018-03-21T21:48:17.457Z,6.00
2018-03-21T21:50:44.887Z,7.00
2018-03-21T21:53:12.312Z,6.93
2018-03-21T21:55:41.541Z,7.10
2018-03-21T21:58:08.985Z,6.30
2018-03-21T22:00:36.435Z,6.20
2018-03-21T22:03:03.851Z,6.50
2018-03-21T22:05:31.285Z,6.63
2018-03-21T22:07:58.716Z,8.40
2018-03-21T22:10:26.180Z,7.37
2018-03-21T22:12:53.653Z,6.43
2018-03-21T22:15:21.076Z,7.50
2018-03-21T22:17:49.281Z,7.10
2018-03-21T22:20:16.734Z,6.87
2018-03-21T22:22:44.144Z,7.17
2018-03-21T22:25:12.360Z,6.03
2018-03-21T22:27:39.784Z,5.90
2018-03-21T22:30:07.223Z,5.80
2018-03-21T22:32:34.643Z,6.70
2018-03-21T22:35:02.085Z,6.57
2018-03-21T22:37:29.501Z,5.93
2018-03-21T22:39:57.680Z,6.17
2018-03-21T22:42:25.127Z,6.80
2018-03-21T22:44:52.568Z,6.20
2018-03-21T22:47:20.020Z,6.37
2018-03-21T22:49:47.431Z,5.33
2018-03-21T22:52:15.696Z,5.10
2018-03-21T22:54:43.891Z,5.10
2018-03-21T22:57:11.323Z,5.40
2018-03-21T22:59:38.743Z,6.23
2018-03-21T23:02:06.185Z,5.10
2018-03-21T23:04:34.376Z,5.07
2018-03-21T23:07:01.801Z,5.10
2018-03-21T23:09:29.237Z,5.07
2018-03-21T23:11:56.679Z,5.37
2018-03-21T23:14:24.123Z,5.23
2018-03-21T23:16:51.560Z,5.50
2018-03-21T23:19:19.005Z,4.60
2018-03-21T23:21:46.441Z,5.60
2018-03-21T23:24:14.672Z,5.40
2018-03-21T23:26:42.089Z,5.60
2018-03-21T23:29:09.524Z,6.03
2018-03-21T23:31:36.949Z,5.83
2018-03-21T23:34:04.398Z,5.93
2018-03-21T23:36:31.832Z,5.33
2018-03-21T23:38:59.292Z,4.87
2018-03-21T23:41:26.696Z,4.43
2018-03-21T23:43:54.137Z,5.03
2018-03-21T23:46:21.585Z,5.53
2018-03-21T23:48:49.012Z,5.23
2018-03-21T23:51:16.461Z,5.57
2018-03-21T23:53:44.650Z,5.30
2018-03-21T23:56:12.089Z,5.43
2018-03-21T23:58:39.504Z,5.17
